Time;durP1;ratioP1;P1;durP2;ratioP2;P2;SDS_P1;SDS_P2;PMS_P1;PMS_P2;Temp;Humidity;BMP_temperature;BMP_pressure;BME280_temperature;BME280_humidity;BME280_pressure;Samples;Min_cycle;Max_cycle;Signal;HPM_P1;HPM_P2
2021/09/01 00:01:28;;;;;;;;;28.75;23.25;;;;;17.80;71.07;102289.81;5081965;27;45259;-62
2021/09/01 00:03:53;;;;;;;;;26.25;22.75;;;;;17.71;76.92;102291.91;5082272;27;45416;-62
2021/09/01 00:06:19;;;;;;;;;23.00;23.00;;;;;17.72;72.57;102291.84;5091969;27;45436;-62
2021/09/01 00:08:44;;;;;;;;;18.25;16.50;;;;;17.71;72.23;102297.16;5122746;27;45402;-62
2021/09/01 00:11:09;;;;;;;;;24.75;20.25;;;;;17.72;72.05;102302.38;5123648;27;45281;-63
2021/09/01 00:13:35;;;;;;;;;21.75;21.00;;;;;17.69;73.30;102296.34;5123963;27;45219;-62
2021/09/01 00:16:00;;;;;;;;;26.25;24.00;;;;;17.65;74.21;102292.94;5123065;27;46583;-63
2021/09/01 00:18:26;;;;;;;;;31.00;25.50;;;;;17.64;72.02;102299.09;5104524;27;45785;-63
2021/09/01 00:20:51;;;;;;;;;25.50;23.50;;;;;17.60;72.74;102295.69;5105090;27;45251;-63
2021/09/01 00:23:16;;;;;;;;;31.25;27.25;;;;;17.60;73.34;102298.31;5122146;27;45365;-62
2021/09/01 00:25:43;;;;;;;;;27.75;23.00;;;;;17.55;72.80;102294.97;5119763;27;46423;-62
2021/09/01 00:28:08;;;;;;;;;17.00;17.00;;;;;17.51;74.61;102289.88;5119558;27;46327;-63
2021/09/01 00:30:34;;;;;;;;;32.00;25.50;;;;;17.50;76.21;102285.53;5121146;27;45643;-62
2021/09/01 00:33:00;;;;;;;;;21.25;18.25;;;;;17.47;75.13;102296.16;5120067;27;45896;-62
2021/09/01 00:35:25;;;;;;;;;30.00;25.50;;;;;17.46;72.69;102291.81;5119386;27;45806;-62
2021/09/01 00:37:50;;;;;;;;;22.75;18.25;;;;;17.45;73.53;102292.72;5119145;27;45497;-62
2021/09/01 00:40:16;;;;;;;;;20.75;20.75;;;;;17.42;73.63;102300.66;5119432;27;45520;-62
2021/09/01 00:42:42;;;;;;;;;25.00;22.50;;;;;17.37;75.76;102299.97;5119171;27;45627;-62
2021/09/01 00:45:08;;;;;;;;;23.75;22.00;;;;;17.34;76.40;102300.91;5116965;27;45565;-61
2021/09/01 00:47:36;;;;;;;;;28.00;23.25;;;;;17.31;75.46;102301.88;5122371;27;45438;-62
2021/09/01 00:50:09;;;;;;;;;16.75;15.50;;;;;17.30;76.37;102304.56;5122830;27;45349;-62
2021/09/01 00:52:37;;;;;;;;;21.25;21.25;;;;;17.25;76.17;102304.69;5122716;27;45440;-63
2021/09/01 00:55:03;;;;;;;;;30.50;21.25;;;;;17.24;76.88;102302.97;5122745;27;45321;-62
2021/09/01 00:57:29;;;;;;;;;30.75;24.00;;;;;17.22;77.11;102306.53;5122489;27;45215;-62
2021/09/01 00:59:56;;;;;;;;;26.25;24.75;;;;;17.19;78.30;102299.59;5120707;27;45559;-63
2021/09/01 01:02:22;;;;;;;;;26.25;23.50;;;;;17.16;76.35;102302.31;5123087;27;45248;-62
2021/09/01 01:04:47;;;;;;;;;28.75;26.00;;;;;17.12;76.66;102294.59;5122841;27;45358;-62
2021/09/01 01:07:13;;;;;;;;;26.75;25.25;;;;;17.10;76.49;102297.25;5122650;27;45355;-62
2021/09/01 01:09:43;;;;;;;;;32.75;27.00;;;;;17.08;77.55;102301.72;5121814;27;45299;-62
2021/09/01 01:12:11;;;;;;;;;22.00;20.75;;;;;17.08;75.92;102299.09;5120001;27;46365;-62
2021/09/01 01:14:38;;;;;;;;;24.50;21.75;;;;;17.07;78.09;102304.38;5119926;27;46418;-62
2021/09/01 01:17:05;;;;;;;;;24.75;16.75;;;;;17.06;76.95;102303.53;5121764;27;45389;-62
2021/09/01 01:19:31;;;;;;;;;25.75;24.00;;;;;17.06;78.92;102311.41;5120472;27;45377;-62
2021/09/01 01:21:57;;;;;;;;;35.00;28.25;;;;;17.05;77.20;102309.69;5102587;27;45450;-61
2021/09/01 01:24:26;;;;;;;;;23.50;20.00;;;;;17.00;78.27;102301.06;5121023;27;45242;-61
2021/09/01 01:26:51;;;;;;;;;27.25;24.25;;;;;16.96;81.10;102295.03;5100985;27;45491;-61
2021/09/01 01:29:16;;;;;;;;;29.25;23.50;;;;;16.91;79.83;102294.31;5118578;27;45575;-61
2021/09/01 01:31:42;;;;;;;;;32.50;26.00;;;;;16.90;79.63;102289.97;5119050;27;45559;-61
2021/09/01 01:34:14;;;;;;;;;29.75;25.00;;;;;16.90;79.15;102289.97;5118984;27;46313;-61
2021/09/01 01:36:40;;;;;;;;;30.75;26.75;;;;;16.87;79.90;102287.44;5118149;27;46029;-62
2021/09/01 01:39:05;;;;;;;;;30.50;28.25;;;;;16.84;79.99;102282.28;5118938;27;45637;-61
2021/09/01 01:41:31;;;;;;;;;34.00;28.00;;;;;16.78;81.08;102284.19;5116593;27;45514;-61
2021/09/01 01:43:56;;;;;;;;;32.25;26.25;;;;;16.73;81.82;102295.69;5121069;27;46673;-61
2021/09/01 01:46:21;;;;;;;;;30.50;29.50;;;;;16.66;81.67;102288.03;5102363;27;45416;-61
2021/09/01 01:48:49;;;;;;;;;33.25;28.00;;;;;16.65;81.83;102289.78;5121162;27;45497;-61
2021/09/01 01:51:14;;;;;;;;;38.50;34.00;;;;;16.64;79.93;102284.59;5118704;27;45481;-61
2021/09/01 01:53:40;;;;;;;;;34.00;27.50;;;;;16.65;82.59;102299.44;5120590;27;46180;-61
2021/09/01 01:56:05;;;;;;;;;36.50;28.25;;;;;16.62;81.45;102287.25;5120525;27;45223;-62
2021/09/01 01:58:30;;;;;;;;;34.00;30.25;;;;;16.61;79.45;102290.75;5120734;27;45215;-61
2021/09/01 02:00:56;;;;;;;;;36.25;28.25;;;;;16.62;79.06;102294.28;5120650;27;45416;-61
2021/09/01 02:03:21;;;;;;;;;40.25;30.75;;;;;16.57;81.77;102290.88;5120953;27;46214;-61
2021/09/01 02:05:47;;;;;;;;;35.75;26.50;;;;;16.59;81.33;102296.94;5120398;27;45271;-62
2021/09/01 02:08:12;;;;;;;;;28.25;25.75;;;;;16.58;82.60;102285.59;5103357;27;46933;-61
2021/09/01 02:10:38;;;;;;;;;27.00;22.50;;;;;16.53;81.57;102290.13;5120249;27;45656;-61
2021/09/01 02:13:04;;;;;;;;;29.00;26.00;;;;;16.51;82.13;102296.31;5118967;27;45646;-61
2021/09/01 02:15:29;;;;;;;;;40.00;32.50;;;;;16.45;80.71;102292.09;5100473;27;45289;-61
2021/09/01 02:17:55;;;;;;;;;32.75;27.50;;;;;16.43;82.12;102292.16;5119912;27;45580;-61
2021/09/01 02:20:21;;;;;;;;;37.00;30.75;;;;;16.42;82.46;102303.53;5119753;27;45335;-61
2021/09/01 02:22:47;;;;;;;;;33.25;31.25;;;;;16.41;81.66;102308.81;5120185;27;46347;-61
2021/09/01 02:25:13;;;;;;;;;32.00;29.75;;;;;16.40;83.08;102297.44;5119986;27;45341;-61
2021/09/01 02:27:40;;;;;;;;;32.50;30.00;;;;;16.42;84.88;102307.94;5119459;27;45503;-61
2021/09/01 02:30:06;;;;;;;;;39.00;31.00;;;;;16.38;84.04;102308.91;5119963;27;45365;-61
2021/09/01 02:32:32;;;;;;;;;35.50;30.00;;;;;16.38;83.05;102306.28;5120491;27;45257;-61
2021/09/01 02:34:57;;;;;;;;;39.25;31.50;;;;;16.40;83.51;102300.06;5120126;27;45173;-61
2021/09/01 02:37:23;;;;;;;;;37.75;31.75;;;;;16.46;82.90;102301.69;5120266;27;45181;-61
2021/09/01 02:39:48;;;;;;;;;36.00;31.00;;;;;16.48;80.94;102305.13;5118793;27;45299;-61
2021/09/01 02:42:14;;;;;;;;;42.00;34.00;;;;;16.55;80.88;102306.69;5119685;27;45721;-60
2021/09/01 02:44:39;;;;;;;;;31.75;28.00;;;;;16.55;81.16;102303.19;5120498;27;45450;-60
2021/09/01 02:47:04;;;;;;;;;35.00;31.50;;;;;16.58;82.06;102303.97;5120160;27;45353;-60
2021/09/01 02:49:30;;;;;;;;;35.00;29.25;;;;;16.61;83.01;102301.25;5119750;27;45484;-61
2021/09/01 02:51:55;;;;;;;;;32.50;22.25;;;;;16.60;82.29;102302.16;5119975;27;46360;-61
2021/09/01 02:54:21;;;;;;;;;35.25;30.25;;;;;16.62;83.45;102296.91;5119928;27;45272;-62
2021/09/01 02:56:46;;;;;;;;;33.75;30.00;;;;;16.63;81.01;102299.47;5119386;27;45438;-61
2021/09/01 02:59:12;;;;;;;;;40.50;30.75;;;;;16.61;81.77;102306.50;5119111;27;45639;-61
2021/09/01 03:01:37;;;;;;;;;40.75;32.00;;;;;16.66;82.20;102306.41;5120456;27;45334;-61
2021/09/01 03:04:03;;;;;;;;;37.50;29.50;;;;;16.71;80.86;102304.53;5118960;27;45389;-61
2021/09/01 03:06:32;;;;;;;;;33.25;27.75;;;;;16.76;81.79;102302.63;5106485;27;45343;-61
2021/09/01 03:08:57;;;;;;;;;35.00;28.75;;;;;16.76;82.35;102301.78;5120716;27;45506;-61
2021/09/01 03:11:23;;;;;;;;;35.50;31.00;;;;;16.77;81.69;102312.22;5119570;27;45350;-61
2021/09/01 03:13:48;;;;;;;;;28.50;23.00;;;;;16.77;80.71;102309.59;5120986;27;45168;-62
2021/09/01 03:16:16;;;;;;;;;34.75;28.50;;;;;16.78;80.50;102310.47;5121262;27;45239;-60
2021/09/01 03:18:42;;;;;;;;;43.00;29.50;;;;;16.72;81.22;102309.72;5120784;27;45287;-60
2021/09/01 03:21:09;;;;;;;;;38.25;30.50;;;;;16.70;82.11;102310.69;5117519;27;45406;-60
2021/09/01 03:23:35;;;;;;;;;29.50;26.00;;;;;16.67;80.66;102309.00;5118151;27;45483;-61
2021/09/01 03:26:00;;;;;;;;;38.50;28.50;;;;;16.63;82.44;102306.50;5120109;27;45322;-61
2021/09/01 03:28:25;;;;;;;;;40.25;33.00;;;;;16.61;81.01;102292.50;5120176;27;45404;-62
2021/09/01 03:30:51;;;;;;;;;35.00;26.75;;;;;16.64;81.40;102305.59;5118391;27;47157;-62
2021/09/01 03:33:16;;;;;;;;;25.75;22.50;;;;;16.64;80.97;102306.44;5119322;27;45350;-62
2021/09/01 03:35:41;;;;;;;;;34.00;28.00;;;;;16.66;81.76;102302.03;5120077;27;45182;-62
2021/09/01 03:38:10;;;;;;;;;37.25;31.25;;;;;16.68;80.72;102307.25;5120607;27;45358;-61
2021/09/01 03:40:35;;;;;;;;;34.50;28.25;;;;;16.70;81.45;102294.94;5120291;27;45472;-62
2021/09/01 03:43:00;;;;;;;;;31.50;28.25;;;;;16.77;80.77;102290.34;5120640;27;45484;-62
2021/09/01 03:45:26;;;;;;;;;30.50;26.50;;;;;16.77;81.05;102290.34;5120724;27;45412;-62
2021/09/01 03:47:51;;;;;;;;;38.25;31.25;;;;;16.76;80.71;102299.16;5120585;27;45329;-62
2021/09/01 03:50:16;;;;;;;;;31.50;30.00;;;;;16.80;79.94;102306.03;5120417;27;45385;-62
2021/09/01 03:52:42;;;;;;;;;27.00;22.00;;;;;16.78;80.36;102303.44;5101866;27;45413;-60
2021/09/01 03:55:09;;;;;;;;;40.00;32.50;;;;;16.77;80.22;102316.63;5120372;27;45405;-61
2021/09/01 03:57:36;;;;;;;;;33.25;27.50;;;;;16.75;80.44;102321.06;5120644;27;45511;-62
2021/09/01 04:00:06;;;;;;;;;34.25;31.25;;;;;16.76;79.96;102325.41;5119653;27;46245;-60
2021/09/01 04:02:32;;;;;;;;;34.75;30.75;;;;;16.73;81.02;102324.59;5119843;27;45396;-60
2021/09/01 04:04:57;;;;;;;;;35.25;31.25;;;;;16.71;80.57;102315.03;5120389;27;45413;-61
2021/09/01 04:07:23;;;;;;;;;34.00;30.75;;;;;16.67;81.03;102318.66;5119717;27;45380;-61
2021/09/01 04:09:48;;;;;;;;;36.50;31.00;;;;;16.69;80.58;102316.84;5119656;27;46102;-61
2021/09/01 04:12:13;;;;;;;;;34.75;33.00;;;;;16.71;80.49;102317.66;5120147;27;45416;-62
2021/09/01 04:14:41;;;;;;;;;37.25;29.75;;;;;16.71;80.46;102315.03;5101566;27;45393;-62
2021/09/01 04:17:06;;;;;;;;;33.00;24.75;;;;;16.72;80.37;102317.63;5101399;27;45412;-61
2021/09/01 04:19:32;;;;;;;;;31.00;26.75;;;;;16.69;80.85;102315.06;5101358;27;46972;-61
2021/09/01 04:21:57;;;;;;;;;39.00;32.75;;;;;16.71;79.69;102315.88;5101012;27;45450;-61
2021/09/01 04:24:22;;;;;;;;;27.25;23.75;;;;;16.70;81.41;102318.56;5119811;27;45425;-61
2021/09/01 04:26:48;;;;;;;;;39.50;32.50;;;;;16.72;80.68;102320.25;5118553;27;45179;-62
2021/09/01 04:29:13;;;;;;;;;37.50;29.00;;;;;16.75;81.33;102313.19;5118465;27;45300;-62
2021/09/01 04:31:41;;;;;;;;;35.75;29.00;;;;;16.69;80.06;102307.19;5119367;27;45387;-62
2021/09/01 04:34:07;;;;;;;;;36.00;30.50;;;;;16.75;81.22;102305.31;5121731;27;45442;-61
2021/09/01 04:36:32;;;;;;;;;35.50;30.50;;;;;16.71;81.47;102308.00;5123077;27;45571;-61
2021/09/01 04:38:57;;;;;;;;;41.00;33.50;;;;;16.71;80.45;102315.88;5122685;27;45355;-61
2021/09/01 04:41:23;;;;;;;;;44.25;30.75;;;;;16.68;79.81;102297.59;5122642;27;45298;-61
2021/09/01 04:43:48;;;;;;;;;42.75;34.00;;;;;16.65;80.38;102310.78;5122979;27;45346;-61
2021/09/01 04:46:13;;;;;;;;;36.75;28.50;;;;;16.64;80.58;102322.19;5123141;27;45547;-61
2021/09/01 04:48:41;;;;;;;;;36.00;30.75;;;;;16.67;80.77;102327.38;5122640;27;46323;-61
2021/09/01 04:51:07;;;;;;;;;36.25;31.00;;;;;16.67;81.18;102329.16;5122825;27;45244;-61
2021/09/01 04:53:32;;;;;;;;;32.75;27.50;;;;;16.69;80.80;102336.06;5122848;27;45474;-60
2021/09/01 04:55:57;;;;;;;;;36.50;31.25;;;;;16.73;80.74;102339.47;5122085;27;45214;-60
2021/09/01 04:58:23;;;;;;;;;40.25;28.75;;;;;16.75;81.06;102335.03;5122445;27;45314;-62
2021/09/01 05:00:48;;;;;;;;;30.00;21.50;;;;;16.75;80.56;102332.41;5122546;27;45256;-61
2021/09/01 05:03:13;;;;;;;;;35.75;31.25;;;;;16.73;81.34;102340.34;5122906;27;45304;-62
2021/09/01 05:05:41;;;;;;;;;37.25;31.00;;;;;16.70;80.54;102329.06;5122099;27;45270;-63
2021/09/01 05:08:07;;;;;;;;;40.00;31.50;;;;;16.67;79.95;102345.75;5122210;27;46303;-62
2021/09/01 05:10:32;;;;;;;;;38.50;31.00;;;;;16.65;82.01;102337.03;5122099;27;45481;-61
2021/09/01 05:12:57;;;;;;;;;35.25;31.00;;;;;16.62;80.52;102328.41;5122792;27;45295;-61
2021/09/01 05:15:23;;;;;;;;;43.50;32.75;;;;;16.63;80.93;102338.00;5103537;27;45476;-62
2021/09/01 05:17:48;;;;;;;;;38.25;31.00;;;;;16.65;80.39;102333.56;5121847;27;45326;-61
2021/09/01 05:20:17;;;;;;;;;29.00;24.00;;;;;16.62;80.99;102338.88;5103158;27;45318;-61
2021/09/01 05:22:47;;;;;;;;;32.75;24.25;;;;;16.59;81.18;102331.06;5122169;27;45421;-61
2021/09/01 05:25:16;;;;;;;;;42.75;33.00;;;;;16.62;81.54;102339.75;5122178;27;45338;-61
2021/09/01 05:27:45;;;;;;;;;38.50;29.50;;;;;16.61;81.56;102338.00;5121486;27;46460;-61
2021/09/01 05:30:16;;;;;;;;;47.25;34.25;;;;;16.58;81.25;102338.09;5122144;27;45910;-62
2021/09/01 05:32:44;;;;;;;;;34.25;28.50;;;;;16.59;81.71;102334.56;5122537;27;45173;-62
2021/09/01 05:35:12;;;;;;;;;35.00;28.50;;;;;16.57;81.63;102339.00;5121466;27;45354;-62
2021/09/01 05:37:38;;;;;;;;;28.50;25.25;;;;;16.55;80.94;102332.94;5121988;27;45482;-62
2021/09/01 05:40:06;;;;;;;;;33.00;28.50;;;;;16.54;81.64;102340.84;5121576;27;45322;-62
2021/09/01 05:42:32;;;;;;;;;38.25;29.75;;;;;16.53;81.35;102344.38;5122257;27;45274;-64
2021/09/01 05:44:59;;;;;;;;;33.50;30.50;;;;;16.53;81.32;102347.84;5121281;27;45278;-63
2021/09/01 05:47:26;;;;;;;;;38.00;27.75;;;;;16.56;81.75;102342.53;5121198;27;45441;-62
2021/09/01 05:49:53;;;;;;;;;38.00;33.00;;;;;16.60;81.36;102354.66;5119526;27;45396;-61
2021/09/01 05:52:18;;;;;;;;;39.75;33.00;;;;;16.61;80.58;102351.13;5122097;27;45523;-63
2021/09/01 05:54:46;;;;;;;;;32.75;26.75;;;;;16.58;80.92;102356.47;5120071;27;45371;-63
2021/09/01 05:57:13;;;;;;;;;31.75;27.75;;;;;16.59;81.59;102358.19;5122047;27;45277;-63
2021/09/01 06:00:17;;;;;;;;;29.75;25.25;;;;;16.64;80.88;102360.72;5115103;27;45813;-63
2021/09/01 06:02:52;;;;;;;;;33.50;29.00;;;;;16.71;81.23;102360.53;5104314;27;45606;-59
2021/09/01 06:05:20;;;;;;;;;31.75;25.75;;;;;16.78;80.87;102361.22;5118048;27;45562;-59
2021/09/01 06:07:53;;;;;;;;;33.00;26.25;;;;;16.84;80.30;102360.19;5118025;27;46266;-60
2021/09/01 06:10:29;;;;;;;;;34.00;30.00;;;;;16.90;80.04;102366.13;5118356;27;45360;-60
2021/09/01 06:12:57;;;;;;;;;38.50;30.50;;;;;16.89;79.59;102363.53;5099552;27;45454;-59
2021/09/01 06:15:26;;;;;;;;;34.25;24.75;;;;;16.85;80.21;102360.16;5118605;27;45451;-59
2021/09/01 06:17:51;;;;;;;;;36.75;31.00;;;;;16.89;80.17;102358.31;5119617;27;45361;-62
2021/09/01 06:20:17;;;;;;;;;35.75;26.25;;;;;16.90;80.24;102349.50;5120255;27;45371;-63
2021/09/01 06:22:43;;;;;;;;;34.25;28.00;;;;;16.91;79.61;102341.59;5120947;27;45148;-62
2021/09/01 06:25:09;;;;;;;;;25.25;19.75;;;;;16.94;80.41;102343.25;5119878;27;45587;-61
2021/09/01 06:27:35;;;;;;;;;41.75;31.75;;;;;16.98;79.43;102344.88;5119928;27;45597;-62
2021/09/01 06:30:00;;;;;;;;;38.75;33.25;;;;;16.97;79.59;102343.16;5121155;27;45850;-62
2021/09/01 06:32:25;;;;;;;;;37.00;31.25;;;;;17.01;80.06;102347.44;5120831;27;45255;-63
2021/09/01 06:34:51;;;;;;;;;36.25;31.00;;;;;17.03;79.50;102349.13;5120399;27;45248;-63
2021/09/01 06:37:16;;;;;;;;;36.00;31.00;;;;;17.06;79.42;102342.94;5120763;27;45340;-64
2021/09/01 06:39:42;;;;;;;;;33.00;28.75;;;;;17.07;80.07;102334.13;5119927;27;45475;-62
2021/09/01 06:42:07;;;;;;;;;40.00;32.25;;;;;17.15;79.33;102340.00;5120933;27;45338;-62
2021/09/01 06:44:37;;;;;;;;;31.50;29.50;;;;;17.18;79.59;102341.69;5120467;27;45346;-62
2021/09/01 06:47:04;;;;;;;;;36.50;32.00;;;;;17.19;79.26;102339.00;5120571;27;45419;-62
2021/09/01 06:49:31;;;;;;;;;39.00;31.00;;;;;17.26;79.07;102345.81;5102001;27;45740;-61
2021/09/01 06:51:57;;;;;;;;;34.00;29.75;;;;;17.29;79.00;102342.25;5120722;27;45277;-61
2021/09/01 06:54:22;;;;;;;;;39.00;33.00;;;;;17.36;78.74;102346.41;5120414;27;45435;-62
2021/09/01 06:56:48;;;;;;;;;33.00;28.75;;;;;17.37;79.04;102342.88;5119590;27;46238;-62
2021/09/01 06:59:13;;;;;;;;;39.75;31.00;;;;;17.40;78.39;102341.91;5120397;27;45451;-62
2021/09/01 07:01:38;;;;;;;;;42.50;32.50;;;;;17.38;78.75;102334.06;5120802;27;45495;-61
2021/09/01 07:04:04;;;;;;;;;36.25;30.00;;;;;17.45;78.35;102340.88;5120859;27;45274;-61
2021/09/01 07:06:29;;;;;;;;;39.75;33.75;;;;;17.51;78.21;102342.44;5120161;27;45325;-61
2021/09/01 07:08:55;;;;;;;;;36.25;27.50;;;;;17.50;78.31;102349.47;5120443;27;45244;-62
2021/09/01 07:11:20;;;;;;;;;37.00;28.00;;;;;17.51;77.82;102339.81;5120652;27;45336;-62
2021/09/01 07:13:49;;;;;;;;;35.00;31.50;;;;;17.56;77.46;102353.69;5120733;27;45545;-63
2021/09/01 07:16:14;;;;;;;;;41.00;32.50;;;;;17.57;77.63;102335.22;5120514;27;45568;-62
2021/09/01 07:18:43;;;;;;;;;27.25;23.25;;;;;17.62;77.76;102335.97;5120333;27;45225;-62
2021/09/01 07:21:08;;;;;;;;;34.75;28.25;;;;;17.67;77.44;102343.69;5121039;27;45381;-63
2021/09/01 07:23:34;;;;;;;;;38.25;29.25;;;;;17.70;76.84;102342.78;5101356;27;45456;-64
2021/09/01 07:25:59;;;;;;;;;30.25;28.75;;;;;17.73;76.87;102333.00;5120294;27;45289;-64
2021/09/01 07:28:25;;;;;;;;;36.50;30.00;;;;;17.72;76.65;102333.06;5119918;27;45299;-64
2021/09/01 07:30:51;;;;;;;;;30.75;28.00;;;;;17.73;76.48;102332.16;5120412;27;45300;-64
2021/09/01 07:33:16;;;;;;;;;32.00;28.00;;;;;17.75;76.62;102331.19;5120631;27;45522;-63
2021/09/01 07:35:42;;;;;;;;;33.50;28.75;;;;;17.78;76.41;102338.13;5120117;27;45341;-63
2021/09/01 07:38:07;;;;;;;;;28.75;23.25;;;;;17.79;76.32;102330.19;5120349;27;45436;-63
2021/09/01 07:40:32;;;;;;;;;30.25;27.25;;;;;17.82;75.75;102334.47;5120019;27;45195;-62
2021/09/01 07:42:58;;;;;;;;;35.50;28.00;;;;;17.85;76.10;102332.63;5120235;27;45223;-62
2021/09/01 07:45:23;;;;;;;;;32.75;26.50;;;;;17.90;75.92;102333.34;5101542;27;48193;-62
2021/09/01 07:47:51;;;;;;;;;33.25;28.00;;;;;17.90;75.50;102327.22;5120255;27;45322;-61
2021/09/01 07:50:19;;;;;;;;;31.75;26.50;;;;;17.93;75.38;102340.25;5119954;27;45428;-60
2021/09/01 07:52:45;;;;;;;;;33.50;26.75;;;;;17.88;75.15;102345.69;5120223;27;45440;-62
2021/09/01 07:55:13;;;;;;;;;29.25;21.75;;;;;17.89;75.07;102342.13;5119783;27;45241;-62
2021/09/01 07:57:40;;;;;;;;;28.25;21.50;;;;;17.88;75.23;102344.81;5119960;27;45231;-63
2021/09/01 08:00:10;;;;;;;;;28.50;21.00;;;;;17.98;75.07;102342.72;5119882;27;45381;-63
2021/09/01 08:02:35;;;;;;;;;28.50;25.00;;;;;18.06;74.81;102341.59;5101474;27;45627;-61
2021/09/01 08:05:02;;;;;;;;;36.75;28.25;;;;;18.08;74.57;102339.75;5120061;27;45278;-62
2021/09/01 08:07:27;;;;;;;;;38.25;30.50;;;;;18.12;74.65;102330.84;5120424;27;45717;-63
2021/09/01 08:09:53;;;;;;;;;34.75;31.25;;;;;18.18;74.59;102349.06;5123362;27;45223;-61
2021/09/01 08:12:18;;;;;;;;;31.25;26.25;;;;;18.24;73.95;102346.25;5123192;27;45374;-60
2021/09/01 08:14:44;;;;;;;;;32.75;27.75;;;;;18.32;73.97;102342.47;5123486;27;45426;-61
2021/09/01 08:17:10;;;;;;;;;27.50;26.00;;;;;18.39;73.50;102347.47;5122328;27;45631;-61
2021/09/01 08:19:35;;;;;;;;;33.25;29.00;;;;;18.44;73.71;102342.06;5123863;27;45422;-61
2021/09/01 08:22:00;;;;;;;;;28.00;24.75;;;;;18.52;73.06;102340.00;5123345;27;45506;-60
2021/09/01 08:24:26;;;;;;;;;34.00;25.00;;;;;18.55;72.33;102339.91;5123247;27;45237;-60
2021/09/01 08:26:51;;;;;;;;;43.75;31.75;;;;;18.57;72.60;102337.22;5123317;27;45395;-60
2021/09/01 08:29:17;;;;;;;;;29.00;28.00;;;;;18.59;72.86;102335.38;5122861;27;45387;-60
2021/09/01 08:31:42;;;;;;;;;31.00;26.25;;;;;18.66;72.56;102319.34;5123014;27;45507;-60
2021/09/01 08:34:07;;;;;;;;;27.25;20.00;;;;;18.75;71.90;102323.41;5122958;27;45382;-59
2021/09/01 08:36:33;;;;;;;;;29.75;25.25;;;;;18.82;71.50;102324.91;5122802;27;45486;-59
2021/09/01 08:38:58;;;;;;;;;30.50;23.25;;;;;18.95;71.63;102331.44;5122746;27;45365;-60
2021/09/01 08:41:27;;;;;;;;;33.00;28.25;;;;;19.06;70.84;102336.34;5122963;27;45226;-59
2021/09/01 08:43:55;;;;;;;;;40.00;30.25;;;;;19.11;70.99;102329.09;5121978;27;46468;-61
2021/09/01 08:46:21;;;;;;;;;29.75;26.00;;;;;19.24;70.56;102335.63;5122565;27;45445;-60
2021/09/01 08:48:48;;;;;;;;;31.50;28.25;;;;;19.37;69.62;102333.38;5123507;27;45764;-60
2021/09/01 08:51:13;;;;;;;;;29.75;25.50;;;;;19.41;69.50;102333.19;5123105;27;45267;-60
2021/09/01 08:53:39;;;;;;;;;26.00;23.50;;;;;19.45;69.10;102341.84;5122864;27;45303;-59
2021/09/01 08:56:04;;;;;;;;;44.75;31.25;;;;;19.48;69.34;102339.09;5122628;27;45281;-60
2021/09/01 08:58:33;;;;;;;;;28.75;24.50;;;;;19.55;69.54;102348.50;5123202;27;45989;-60
2021/09/01 09:00:59;;;;;;;;;23.50;23.50;;;;;19.64;68.73;102342.88;5104008;27;45616;-60
2021/09/01 09:03:24;;;;;;;;;23.25;19.25;;;;;19.72;69.41;102346.06;5122635;27;46329;-60
2021/09/01 09:05:50;;;;;;;;;30.00;27.25;;;;;19.83;68.33;102342.16;5122504;27;45294;-60
2021/09/01 09:08:16;;;;;;;;;29.00;26.00;;;;;19.98;68.15;102352.06;5122073;27;45474;-60
2021/09/01 09:10:46;;;;;;;;;23.75;20.75;;;;;20.09;66.87;102346.34;5122382;27;45626;-61
2021/09/01 09:13:13;;;;;;;;;25.75;25.25;;;;;20.19;67.48;102339.75;5122671;27;45366;-64
2021/09/01 09:15:40;;;;;;;;;33.25;27.25;;;;;20.35;67.49;102340.81;5122301;27;45305;-63
2021/09/01 09:18:29;;;;;;;;;27.00;24.75;;;;;20.43;65.69;102343.19;5117523;27;45439;-62
2021/09/01 09:21:34;;;;;;;;;26.75;23.25;;;;;20.42;65.78;102333.50;5121857;27;45463;-63
2021/09/01 09:24:16;;;;;;;;;28.25;22.75;;;;;20.46;66.47;102333.34;5038291;28;46367;-62
2021/09/01 09:26:43;;;;;;;;;27.50;23.50;;;;;20.56;65.94;102320.56;5111060;27;45275;-62
2021/09/01 09:29:17;;;;;;;;;24.50;24.25;;;;;20.55;65.36;102330.28;5121893;27;45336;-63
2021/09/01 09:32:25;;;;;;;;;29.75;23.25;;;;;20.75;65.88;102318.81;5122661;27;45397;-59
2021/09/01 09:34:55;;;;;;;;;29.00;26.50;;;;;20.94;64.13;102324.13;5051000;28;45422;-61
2021/09/01 09:37:21;;;;;;;;;27.25;23.25;;;;;21.20;65.58;102315.00;5102248;27;45702;-61
2021/09/01 09:39:49;;;;;;;;;25.25;24.00;;;;;21.34;62.36;102317.88;5122057;27;45287;-61
2021/09/01 09:42:37;;;;;;;;;30.75;25.75;;;;;21.41;62.96;102323.72;5121555;27;45475;-61
2021/09/01 09:45:24;;;;;;;;;22.25;20.75;;;;;21.46;62.14;102322.59;5121171;27;45746;-61
2021/09/01 09:47:51;;;;;;;;;21.50;18.50;;;;;21.51;63.21;102325.00;5121782;27;45751;-62
2021/09/01 09:50:17;;;;;;;;;31.00;23.25;;;;;21.51;63.35;102310.00;5121690;27;45309;-60
2021/09/01 09:52:43;;;;;;;;;20.75;18.00;;;;;21.56;62.25;102313.28;5121419;27;45283;-60
2021/09/01 09:55:13;;;;;;;;;29.00;22.00;;;;;21.64;60.89;102315.56;5121745;27;46278;-61
2021/09/01 09:57:50;;;;;;;;;26.75;22.25;;;;;21.71;62.56;102316.09;5121572;27;45165;-61
2021/09/01 10:00:17;;;;;;;;;25.25;22.00;;;;;21.85;61.33;102318.94;5121491;27;45329;-61
2021/09/01 10:02:43;;;;;;;;;21.75;20.50;;;;;21.94;61.78;102329.06;5121269;27;45286;-61
2021/09/01 10:05:13;;;;;;;;;22.00;18.25;;;;;21.87;61.18;102319.72;5122451;27;46099;-65
2021/09/01 10:07:39;;;;;;;;;25.50;22.00;;;;;21.79;60.95;102320.09;5121162;27;45191;-61
2021/09/01 10:10:05;;;;;;;;;31.00;25.00;;;;;21.76;59.94;102322.03;5120943;27;45329;-61
2021/09/01 10:12:31;;;;;;;;;26.25;22.50;;;;;21.83;61.14;102315.53;5101703;27;45942;-60
2021/09/01 10:14:59;;;;;;;;;21.50;21.00;;;;;21.97;60.23;102328.91;5120397;27;45455;-63
2021/09/01 10:17:26;;;;;;;;;24.75;21.00;;;;;22.11;60.92;102318.50;5101852;27;45298;-64
2021/09/01 10:19:53;;;;;;;;;21.00;19.50;;;;;22.14;58.21;102309.56;5102806;27;45242;-65
2021/09/01 10:22:19;;;;;;;;;25.25;20.75;;;;;22.06;59.02;102323.19;5119124;27;45319;-63
2021/09/01 10:24:45;;;;;;;;;21.75;18.25;;;;;22.00;59.42;102312.00;5121133;27;46362;-61
2021/09/01 10:27:24;;;;;;;;;26.00;20.75;;;;;21.92;59.70;102320.34;5119520;27;45589;-64
2021/09/01 10:29:55;;;;;;;;;22.75;21.00;;;;;21.86;60.10;102315.38;5102151;27;45519;-62
2021/09/01 10:32:29;;;;;;;;;25.00;19.50;;;;;21.87;59.94;102317.06;5120702;27;45355;-64
2021/09/01 10:35:11;;;;;;;;;20.00;19.75;;;;;21.85;59.42;102311.00;5118850;27;45623;-62
2021/09/01 10:37:45;;;;;;;;;23.25;19.75;;;;;21.80;60.27;102313.84;5108372;27;45208;-64
2021/09/01 10:40:33;;;;;;;;;20.00;16.25;;;;;21.69;58.46;102315.34;5120432;27;45227;-64
2021/09/01 10:43:01;;;;;;;;;24.50;21.00;;;;;21.52;59.83;102293.19;5101195;27;45251;-65
2021/09/01 10:45:33;;;;;;;;;20.50;18.75;;;;;21.52;60.00;102300.28;5101907;27;47027;-63
2021/09/01 10:47:58;;;;;;;;;19.75;18.75;;;;;21.60;59.46;102284.88;5120757;27;45309;-65
2021/09/01 10:50:23;;;;;;;;;25.33;20.33;;;;;21.67;58.89;102294.25;5120891;27;45405;-63
2021/09/01 10:53:05;;;;;;;;;27.33;20.00;;;;;21.85;59.41;102287.19;5101380;27;45474;-64
2021/09/01 10:55:33;;;;;;;;;24.00;18.25;;;;;22.14;59.45;102286.56;5120708;27;45507;-61
2021/09/01 10:58:13;;;;;;;;;23.50;22.00;;;;;22.39;59.02;102286.16;5120461;27;45211;-66
2021/09/01 11:00:39;;;;;;;;;14.00;11.50;;;;;22.50;56.33;102279.44;5101640;27;45626;-62
2021/09/01 11:03:05;;;;;;;;;19.75;19.00;;;;;22.56;57.13;102279.97;5119759;27;45424;-63
2021/09/01 11:05:31;;;;;;;;;20.50;18.00;;;;;22.57;56.86;102279.03;5120259;27;45507;-64
2021/09/01 11:07:56;;;;;;;;;19.75;16.75;;;;;22.51;56.49;102270.56;5118832;27;45431;-65
2021/09/01 11:10:23;;;;;;;;;23.00;19.25;;;;;22.41;56.11;102271.03;5101740;27;45390;-64